SULAYMANIYAH INTERNATIONAL AIRPORT
  • SulyAir
  • SulyAir
1 1
Arrival

ArrivalsMore >>

Departure

DeparturesMore >>

TAF

TAF ORSU 221700Z 2218/2318 32004KT 8000 NSC
BECMG 2302/2304 5000 DU
BECMG 2306/2308 22015G25KT 3000 BLDU FEW045 SCT080
PROB40 2312/2316 1000=

METARs

METAR ORSU 221900Z 29007KT CAVOK 17/07 Q1010=